Neijiang, China
Current Conditions -  °F | °C
As of 8:00 PM on Thursday 18 Dec 2014 (Local Time) from ZUCK Reporting Station
Haze Haze  
Wind Chill: 43°   Ceiling: 5000
Heat Index: 43°   Visibility: 3mi
Dew Point: 37°   Wind: 2mph
Humidity: 81%   Direction: 180°S
Pressure: 30.42"   Gusts: NA
Location:  29.58°N, 105.05°E
Report Text: ZUCK 181200Z 18001MPS 5000 BR OVC050 06/03 Q1030 NOSIG
Loading
Personal Weather Stations






























Interactive Weather Map New forecast layout! Learn more

10-Day Weather Forecast

Advertisements
Track Severe Weather on mobile